Time;durP1;ratioP1;P1;durP2;ratioP2;P2;SDS_P1;SDS_P2;PMS_P1;PMS_P2;Temp;Humidity;BMP_temperature;BMP_pressure;BME280_temperature;BME280_humidity;BME280_pressure;Samples;Min_cycle;Max_cycle;Signal;HPM_P1;HPM_P2
2021/12/06 00:01:49;;;;;;;13.45;8.35;;;;;;;3.05;100.00;62316.00;5021478;28;20238;-75
2021/12/06 00:04:18;;;;;;;14.45;9.05;;;;;;;2.98;100.00;62301.25;5023292;28;20246;-76
2021/12/06 00:06:48;;;;;;;14.23;8.48;;;;;;;2.99;100.00;62304.78;5023843;28;20261;-76
2021/12/06 00:09:20;;;;;;;12.32;8.38;;;;;;;3.07;100.00;62317.53;5024672;28;20218;-77
2021/12/06 00:11:51;;;;;;;13.55;9.57;;;;;;;3.05;100.00;62313.47;5017671;28;20222;-76
2021/12/06 00:14:19;;;;;;;12.40;8.75;;;;;;;3.19;100.00;62325.34;5021826;28;20567;-77
2021/12/06 00:16:45;;;;;;;14.00;9.38;;;;;;;3.22;100.00;62327.91;5023608;28;20207;-76
2021/12/06 00:19:12;;;;;;;11.60;8.63;;;;;;;3.27;100.00;62336.09;5023494;28;20234;-77
2021/12/06 00:21:39;;;;;;;15.60;9.55;;;;;;;3.20;100.00;62323.34;5028973;28;20530;-77
2021/12/06 00:24:06;;;;;;;14.48;9.02;;;;;;;3.30;100.00;62339.16;5025202;28;20226;-77
2021/12/06 00:26:32;;;;;;;17.50;9.82;;;;;;;3.33;100.00;62339.22;5034903;28;20520;-76
2021/12/06 00:29:01;;;;;;;12.60;8.60;;;;;;;3.27;100.00;62336.09;5023253;28;20230;-76
2021/12/06 00:31:33;;;;;;;12.57;8.68;;;;;;;3.26;100.00;62334.53;5021874;28;20515;-77
2021/12/06 00:34:03;;;;;;;12.05;7.50;;;;;;;3.29;100.00;62335.09;5022944;28;20219;-76
2021/12/06 00:36:32;;;;;;;13.98;8.85;;;;;;;3.32;100.00;62338.72;5023603;28;20402;-77
2021/12/06 00:39:00;;;;;;;12.85;8.65;;;;;;;3.24;100.00;62332.47;5023128;28;20539;-75
2021/12/06 00:41:27;;;;;;;16.90;9.32;;;;;;;3.30;100.00;62336.66;5019997;28;20296;-76
2021/12/06 00:43:55;;;;;;;12.27;8.32;;;;;;;3.34;100.00;62340.25;5031079;28;20229;-76
2021/12/06 00:46:23;;;;;;;11.70;8.88;;;;;;;3.36;100.00;62342.81;5039180;28;20218;-76
2021/12/06 00:48:51;;;;;;;18.75;11.00;;;;;;;3.36;100.00;62344.81;5030302;28;20226;-75
2021/12/06 00:51:18;;;;;;;20.55;11.07;;;;;;;3.39;100.00;62350.94;5024493;28;20199;-74
2021/12/06 00:53:45;;;;;;;18.00;10.20;;;;;;;3.42;100.00;62350.97;5018812;28;20226;-76
2021/12/06 00:56:13;;;;;;;13.90;9.13;;;;;;;3.46;100.00;62352.59;5040052;28;20209;-75
2021/12/06 00:58:40;;;;;;;15.65;9.43;;;;;;;3.44;100.00;62355.56;5023989;28;20460;-76
2021/12/06 01:01:08;;;;;;;21.75;10.90;;;;;;;3.44;100.00;62353.03;5022715;28;20226;-76
2021/12/06 01:03:40;;;;;;;17.13;9.40;;;;;;;3.50;100.00;62359.22;5023644;28;20227;-75
2021/12/06 01:06:09;;;;;;;18.85;10.77;;;;;;;3.46;100.00;62353.09;5023721;28;20207;-75
2021/12/06 01:08:37;;;;;;;15.57;9.55;;;;;;;3.52;100.00;62364.28;5022101;28;20249;-75
2021/12/06 01:11:05;;;;;;;15.63;10.27;;;;;;;3.33;100.00;62339.72;5022928;28;20203;-76
2021/12/06 01:13:32;;;;;;;18.58;11.55;;;;;;;3.48;100.00;62360.19;5027695;28;20269;-76
2021/12/06 01:15:59;;;;;;;26.42;13.30;;;;;;;3.51;100.00;62357.72;5032001;28;20198;-76
2021/12/06 01:18:26;;;;;;;24.95;13.80;;;;;;;3.57;100.00;62368.41;5017739;28;20415;-76
2021/12/06 01:21:03;;;;;;;21.05;11.93;;;;;;;3.67;100.00;62371.66;5025516;28;20418;-76
2021/12/06 01:23:43;;;;;;;19.00;10.40;;;;;;;3.51;100.00;62358.25;5026886;28;20218;-76
2021/12/06 01:26:28;;;;;;;13.38;10.07;;;;;;;3.55;100.00;62366.88;5026424;28;20257;-76
2021/12/06 01:29:07;;;;;;;12.93;8.68;;;;;;;3.55;100.00;62367.38;5017801;28;20219;-75
2021/12/06 01:31:44;;;;;;;13.65;8.68;;;;;;;3.54;100.00;62366.34;5024913;28;20207;-76
2021/12/06 01:39:10;;;;;;;15.52;9.13;;;;;;;3.56;100.00;62362.84;5024182;28;20700;-77
2021/12/06 01:39:50;;;;;;;15.68;9.45;;;;;;;3.57;100.00;62363.38;5028108;28;20197;-76
2021/12/06 01:42:18;;;;;;;15.60;9.20;;;;;;;3.60;100.00;62371.50;5033295;28;20234;-75
2021/12/06 01:44:47;;;;;;;16.00;10.15;;;;;;;3.61;100.00;62373.03;5025670;28;20209;-75
2021/12/06 01:47:16;;;;;;;15.75;10.23;;;;;;;3.71;100.00;62380.31;5026078;28;20378;-75
2021/12/06 01:49:46;;;;;;;19.10;9.98;;;;;;;3.78;100.00;62388.00;5024948;28;20206;-76
2021/12/06 01:52:17;;;;;;;16.75;10.55;;;;;;;3.79;100.00;62391.56;5025071;28;20207;-76
2021/12/06 01:54:44;;;;;;;16.55;10.30;;;;;;;3.81;100.00;62391.09;5026209;28;20273;-75
2021/12/06 01:57:12;;;;;;;19.55;10.57;;;;;;;3.72;100.00;62381.84;5021035;28;20242;-75
2021/12/06 01:59:39;;;;;;;18.08;10.40;;;;;;;3.68;100.00;62377.72;5025577;28;20202;-76
2021/12/06 02:02:07;;;;;;;20.10;9.93;;;;;;;3.69;100.00;62380.75;5024797;28;20234;-75
2021/12/06 02:04:36;;;;;;;14.10;9.25;;;;;;;3.63;100.00;62374.56;5026182;28;20257;-77
2021/12/06 02:07:06;;;;;;;13.00;8.50;;;;;;;3.63;100.00;62372.56;5020462;28;20215;-75
2021/12/06 02:09:34;;;;;;;11.80;8.30;;;;;;;3.53;100.00;62360.31;5026122;28;20202;-76
2021/12/06 02:12:03;;;;;;;13.85;8.38;;;;;;;3.54;100.00;62360.81;5024399;28;20442;-76
2021/12/06 02:14:39;;;;;;;12.02;8.88;;;;;;;3.54;100.00;62361.31;5024392;28;20245;-76
2021/12/06 02:17:15;;;;;;;11.90;7.85;;;;;;;3.64;100.00;62370.59;5024764;28;20213;-75
2021/12/06 02:19:47;;;;;;;13.93;9.35;;;;;;;3.74;100.00;62381.38;5025163;28;20579;-75
2021/12/06 02:22:19;;;;;;;15.52;9.55;;;;;;;3.83;100.00;62390.13;5025548;28;20238;-75
2021/12/06 02:24:47;;;;;;;19.52;10.35;;;;;;;3.97;100.00;62409.56;5022558;28;20223;-76
2021/12/06 02:27:15;;;;;;;14.55;9.75;;;;;;;4.04;100.00;62412.22;5026319;28;20415;-76
2021/12/06 02:29:44;;;;;;;16.13;9.88;;;;;;;4.10;100.00;62417.88;5030606;28;20208;-77
2021/12/06 02:32:13;;;;;;;15.82;9.82;;;;;;;4.08;100.00;62418.88;5026901;28;20210;-76
2021/12/06 02:34:42;;;;;;;16.67;10.60;;;;;;;4.14;100.00;62422.50;5037253;28;20206;-77
2021/12/06 02:37:10;;;;;;;15.40;10.27;;;;;;;4.21;100.00;62429.22;5020260;28;20202;-75
2021/12/06 02:39:39;;;;;;;16.52;9.80;;;;;;;4.24;100.00;62432.28;5022988;28;20203;-75
2021/12/06 02:42:08;;;;;;;16.58;10.73;;;;;;;4.33;100.00;62444.09;5025647;28;20404;-75
2021/12/06 02:44:35;;;;;;;20.02;11.35;;;;;;;4.22;100.00;62430.75;5025058;28;20543;-76
2021/12/06 02:47:03;;;;;;;17.25;10.82;;;;;;;4.32;100.00;62448.59;5023517;28;20206;-76
2021/12/06 02:49:30;;;;;;;19.42;10.65;;;;;;;4.37;100.00;62451.22;5024279;28;20679;-75
2021/12/06 02:51:59;;;;;;;19.80;12.70;;;;;;;4.27;100.00;62435.91;5025102;28;20219;-75
2021/12/06 02:54:26;;;;;;;16.70;9.20;;;;;;;4.35;100.00;62446.66;5024113;28;20555;-76
2021/12/06 02:57:06;;;;;;;15.70;8.90;;;;;;;4.28;100.00;62439.44;5021585;28;20202;-75
2021/12/06 02:59:34;;;;;;;13.52;8.55;;;;;;;4.30;100.00;62441.50;5036744;28;20233;-76
2021/12/06 03:02:05;;;;;;;17.27;9.20;;;;;;;4.35;100.00;62444.13;5025451;28;20271;-76
2021/12/06 03:04:32;;;;;;;13.75;8.02;;;;;;;4.22;100.00;62435.28;5030810;28;20199;-76
2021/12/06 03:06:59;;;;;;;15.80;9.38;;;;;;;4.25;100.00;62433.31;5024337;28;20238;-75
2021/12/06 03:09:29;;;;;;;12.15;7.25;;;;;;;4.25;100.00;62438.88;5029207;28;20289;-75
2021/12/06 03:11:59;;;;;;;12.88;8.88;;;;;;;4.25;100.00;62433.84;5024506;28;20202;-76
2021/12/06 03:14:29;;;;;;;10.27;6.82;;;;;;;4.36;100.00;62447.16;5018405;28;20242;-76
2021/12/06 03:16:57;;;;;;;11.50;7.72;;;;;;;4.31;100.00;62445.06;5017000;28;20211;-76
2021/12/06 03:19:24;;;;;;;10.35;6.82;;;;;;;4.22;100.00;62430.75;5024491;28;20218;-75
2021/12/06 03:21:52;;;;;;;14.73;7.00;;;;;;;4.20;100.00;62431.22;5038403;28;20277;-76
2021/12/06 03:24:19;;;;;;;10.13;6.78;;;;;;;4.11;100.00;62421.44;5021430;28;20637;-75
2021/12/06 03:26:47;;;;;;;11.27;6.97;;;;;;;4.07;100.00;62414.81;5024174;28;20522;-75
2021/12/06 03:29:15;;;;;;;11.38;7.38;;;;;;;4.12;100.00;62419.94;5026210;28;20398;-75
2021/12/06 03:31:42;;;;;;;9.68;7.22;;;;;;;4.13;100.00;62426.53;5029607;28;20234;-75
2021/12/06 03:34:11;;;;;;;8.43;7.00;;;;;;;4.16;100.00;62429.59;5026672;28;20220;-76
2021/12/06 03:36:39;;;;;;;8.77;6.68;;;;;;;4.18;100.00;62426.13;5021238;28;20211;-75
2021/12/06 03:39:09;;;;;;;10.23;7.15;;;;;;;4.25;100.00;62436.34;5041001;28;20223;-75
2021/12/06 03:41:35;;;;;;;11.73;7.72;;;;;;;4.27;100.00;62435.91;5031560;28;20206;-76
2021/12/06 03:44:03;;;;;;;12.07;7.70;;;;;;;4.26;100.00;62436.88;5027905;28;20539;-75
2021/12/06 03:46:33;;;;;;;10.30;7.28;;;;;;;4.21;100.00;62429.72;5025618;28;20209;-76
2021/12/06 03:49:00;;;;;;;10.73;7.65;;;;;;;4.24;100.00;62435.34;5010244;28;20470;-76
2021/12/06 03:51:27;;;;;;;10.73;7.32;;;;;;;4.12;100.00;62423.00;5023327;28;20207;-76
2021/12/06 03:53:54;;;;;;;12.88;7.90;;;;;;;4.00;100.00;62410.13;5023427;28;20453;-76
2021/12/06 03:56:21;;;;;;;10.00;6.75;;;;;;;4.09;100.00;62416.88;5031759;28;20202;-75
2021/12/06 03:58:48;;;;;;;13.20;8.15;;;;;;;4.15;100.00;62431.09;5025064;28;20230;-75
2021/12/06 04:01:15;;;;;;;18.63;8.23;;;;;;;4.25;100.00;62438.34;5038518;28;20333;-75
2021/12/06 04:03:44;;;;;;;10.60;7.03;;;;;;;4.20;100.00;62428.69;5015277;28;20587;-75
2021/12/06 04:06:12;;;;;;;9.02;7.35;;;;;;;4.13;100.00;62418.44;5025585;28;20202;-76
2021/12/06 04:08:39;;;;;;;9.50;6.95;;;;;;;4.22;100.00;62430.22;5033751;28;20218;-76
2021/12/06 04:11:06;;;;;;;8.90;7.38;;;;;;;4.14;100.00;62427.56;5024118;28;20269;-74
2021/12/06 04:13:34;;;;;;;10.98;6.82;;;;;;;4.18;100.00;62426.13;5022680;28;20450;-75
2021/12/06 04:16:03;;;;;;;15.02;8.32;;;;;;;4.15;100.00;62421.03;5022787;28;20203;-75
2021/12/06 04:18:30;;;;;;;14.63;9.65;;;;;;;4.13;100.00;62426.00;5024645;28;20234;-75
2021/12/06 04:20:58;;;;;;;15.30;9.32;;;;;;;4.20;100.00;62436.25;5022103;28;20214;-75
2021/12/06 04:23:26;;;;;;;14.52;9.38;;;;;;;4.10;100.00;62422.94;5017717;28;20284;-75
2021/12/06 04:25:53;;;;;;;17.27;10.63;;;;;;;4.10;100.00;62418.41;5023803;28;20202;-76
2021/12/06 04:28:21;;;;;;;18.77;9.93;;;;;;;4.16;100.00;62424.06;5025704;28;20238;-75
2021/12/06 04:30:51;;;;;;;16.58;10.32;;;;;;;4.15;100.00;62423.03;5024048;28;20203;-76
2021/12/06 04:33:18;;;;;;;20.30;10.30;;;;;;;4.17;100.00;62427.63;5025671;28;20258;-77
2021/12/06 04:35:46;;;;;;;17.30;9.75;;;;;;;4.17;100.00;62427.63;5029712;28;20432;-77
2021/12/06 04:38:15;;;;;;;16.33;9.43;;;;;;;4.01;100.00;62411.16;5020616;28;20231;-77
2021/12/06 04:40:42;;;;;;;15.32;9.73;;;;;;;4.11;100.00;62419.44;5023148;28;20261;-76
2021/12/06 04:43:09;;;;;;;17.73;10.38;;;;;;;4.08;100.00;62416.34;5024273;28;20238;-75
2021/12/06 04:45:37;;;;;;;23.58;11.63;;;;;;;4.17;100.00;62430.13;5031325;28;20224;-75
2021/12/06 04:48:05;;;;;;;20.80;13.15;;;;;;;4.21;100.00;62427.19;5024781;28;20226;-76
2021/12/06 04:50:33;;;;;;;26.42;13.95;;;;;;;4.00;100.00;62407.59;5024785;28;20415;-76
2021/12/06 04:53:05;;;;;;;23.20;14.45;;;;;;;4.02;100.00;62409.66;5024369;28;20218;-76
2021/12/06 04:55:40;;;;;;;27.88;15.60;;;;;;;4.08;100.00;62413.81;5028741;28;20210;-77
2021/12/06 04:58:09;;;;;;;23.13;14.25;;;;;;;4.14;100.00;62419.50;5017090;28;20256;-76
2021/12/06 05:00:38;;;;;;;31.02;15.43;;;;;;;4.19;100.00;62427.66;5028491;28;20249;-77
2021/12/06 05:03:07;;;;;;;28.25;14.27;;;;;;;4.23;100.00;62433.78;5042210;28;20242;-76
2021/12/06 05:05:38;;;;;;;27.48;15.00;;;;;;;4.25;100.00;62436.34;5024817;28;20207;-76
2021/12/06 05:08:11;;;;;;;21.80;11.75;;;;;;;4.27;100.00;62435.91;5023375;28;20229;-76
2021/12/06 05:10:39;;;;;;;24.38;13.43;;;;;;;4.36;100.00;62449.69;5030085;28;20206;-76
2021/12/06 05:13:06;;;;;;;25.02;13.32;;;;;;;4.27;100.00;62440.94;5027166;28;20290;-76
2021/12/06 05:15:34;;;;;;;24.00;13.35;;;;;;;4.25;100.00;62436.34;5025194;28;20215;-77
2021/12/06 05:18:01;;;;;;;20.67;12.55;;;;;;;4.29;100.00;62437.44;5028353;28;20396;-77
2021/12/06 05:20:28;;;;;;;21.17;12.90;;;;;;;4.28;100.00;62436.41;5027952;28;20214;-77
2021/12/06 05:22:55;;;;;;;30.33;13.35;;;;;;;4.31;100.00;62439.50;5036572;28;20341;-77
2021/12/06 05:25:25;;;;;;;24.23;12.55;;;;;;;4.34;100.00;62445.09;5027702;28;20205;-78
2021/12/06 05:27:53;;;;;;;23.83;13.30;;;;;;;4.41;100.00;62450.31;5027733;28;20297;-77
2021/12/06 05:30:23;;;;;;;22.90;13.60;;;;;;;4.52;100.00;62464.13;5027605;28;20210;-77
2021/12/06 05:32:50;;;;;;;23.48;13.77;;;;;;;4.53;100.00;62464.66;5037216;28;20221;-77
2021/12/06 05:35:17;;;;;;;23.63;12.20;;;;;;;4.66;100.00;62480.56;5026121;28;20467;-77
2021/12/06 05:37:46;;;;;;;22.42;11.95;;;;;;;4.57;100.00;62469.28;5026875;28;20273;-76
2021/12/06 05:40:16;;;;;;;19.80;12.63;;;;;;;4.60;100.00;62471.88;5041040;28;20253;-77
2021/12/06 05:42:43;;;;;;;22.30;13.20;;;;;;;4.71;100.00;62483.69;5033694;28;20532;-75
2021/12/06 05:45:17;;;;;;;24.52;13.77;;;;;;;4.76;100.00;62488.34;5025959;28;20237;-77
2021/12/06 05:47:44;;;;;;;22.10;11.80;;;;;;;4.71;100.00;62485.72;5027445;28;20230;-78
2021/12/06 05:50:11;;;;;;;18.27;10.95;;;;;;;4.46;100.00;62460.50;5027047;28;20206;-77
2021/12/06 05:52:38;;;;;;;21.13;11.75;;;;;;;4.46;100.00;62459.97;5024804;28;20257;-75
2021/12/06 05:55:08;;;;;;;16.45;11.35;;;;;;;4.15;100.00;62423.56;5025108;28;20190;-77
2021/12/06 05:57:35;;;;;;;14.02;9.27;;;;;;;4.05;100.00;62413.28;5027259;28;20230;-75
2021/12/06 06:00:02;;;;;;;13.57;9.98;;;;;;;3.98;100.00;62408.06;5026511;28;20205;-76
2021/12/06 06:02:30;;;;;;;15.25;9.35;;;;;;;3.96;100.00;62404.00;5032597;28;20226;-77
2021/12/06 06:04:57;;;;;;;17.13;10.38;;;;;;;4.01;100.00;62411.16;5024142;28;20202;-76
2021/12/06 06:07:24;;;;;;;19.75;11.80;;;;;;;3.96;100.00;62409.03;5027555;28;20234;-76
2021/12/06 06:09:51;;;;;;;21.23;9.32;;;;;;;4.09;100.00;62419.88;5025653;28;20492;-76
2021/12/06 06:12:18;;;;;;;25.13;12.65;;;;;;;4.17;100.00;62425.09;5030589;28;20238;-77
2021/12/06 06:14:44;;;;;;;21.98;13.02;;;;;;;4.29;100.00;62439.97;5034930;28;20257;-76
2021/12/06 06:17:13;;;;;;;34.10;16.92;;;;;;;4.16;100.00;62429.09;5035789;28;20190;-75
2021/12/06 06:19:46;;;;;;;28.63;17.08;;;;;;;3.99;100.00;62412.13;5030654;28;20202;-75
2021/12/06 06:22:14;;;;;;;28.02;14.63;;;;;;;4.22;100.00;62435.78;5025726;28;20198;-78
2021/12/06 06:24:41;;;;;;;30.17;16.63;;;;;;;4.29;100.00;62439.97;5028363;28;20463;-78
2021/12/06 06:27:08;;;;;;;26.98;14.07;;;;;;;4.54;100.00;62465.69;5040017;28;20213;-77
2021/12/06 06:29:36;;;;;;;28.48;14.27;;;;;;;4.74;100.00;62483.75;5025479;28;20228;-76
2021/12/06 06:32:03;;;;;;;30.88;13.63;;;;;;;4.85;100.00;62490.03;5030917;28;20244;-76
2021/12/06 06:34:30;;;;;;;23.70;12.90;;;;;;;4.90;100.00;62499.72;5027652;28;20297;-77
2021/12/06 06:36:59;;;;;;;28.27;13.02;;;;;;;4.85;100.00;62497.59;5026052;28;20247;-76
2021/12/06 06:39:26;;;;;;;20.50;12.18;;;;;;;4.98;100.00;62511.00;5025871;28;20277;-77
2021/12/06 06:41:54;;;;;;;17.60;10.00;;;;;;;5.16;100.00;62529.00;5026555;28;20206;-77
2021/12/06 06:44:21;;;;;;;14.68;9.63;;;;;;;5.12;100.00;62527.41;5021951;28;20528;-76
2021/12/06 06:46:50;;;;;;;18.02;9.40;;;;;;;5.20;100.00;62536.16;5011804;28;20214;-76
2021/12/06 06:49:18;;;;;;;17.90;8.60;;;;;;;5.37;100.00;62545.56;5019889;28;20222;-76
2021/12/06 06:51:46;;;;;;;9.85;7.38;;;;;;;5.31;100.00;62544.47;5027531;28;20207;-76
2021/12/06 06:54:16;;;;;;;10.23;6.88;;;;;;;5.36;100.00;62549.59;5014430;28;20290;-76
2021/12/06 06:56:43;;;;;;;10.32;7.10;;;;;;;5.25;100.00;62535.75;5018500;28;20202;-76
2021/12/06 06:59:10;;;;;;;9.45;6.15;;;;;;;5.30;100.00;62543.41;5038492;28;20277;-76
2021/12/06 07:01:37;;;;;;;7.72;6.03;;;;;;;5.24;100.00;62540.28;5027238;28;20211;-77
2021/12/06 07:04:04;;;;;;;9.02;5.90;;;;;;;5.15;100.00;62527.97;5033868;28;20269;-77
2021/12/06 07:06:31;;;;;;;8.32;6.00;;;;;;;5.31;100.00;62544.47;5027374;28;20203;-76
2021/12/06 07:08:58;;;;;;;5.30;4.80;;;;;;;5.45;100.00;62559.38;5027254;28;20225;-76
2021/12/06 07:11:28;;;;;;;7.15;5.43;;;;;;;5.49;100.00;62560.47;5027051;28;20226;-76
2021/12/06 07:13:56;;;;;;;8.65;5.47;;;;;;;5.54;100.00;62570.69;5018043;28;20245;-76
2021/12/06 07:16:23;;;;;;;5.47;4.97;;;;;;;5.63;100.00;62577.41;5026680;28;20194;-76
2021/12/06 07:18:50;;;;;;;17.55;12.00;;;;;;;5.88;100.00;62600.69;5026441;28;20230;-77
2021/12/06 07:21:20;;;;;;;6.75;4.95;;;;;;;5.96;100.00;62613.97;5028027;28;20214;-76
2021/12/06 07:23:48;;;;;;;7.32;6.63;;;;;;;5.85;100.00;62600.09;5026485;28;20439;-78
2021/12/06 07:26:18;;;;;;;7.68;5.95;;;;;;;5.96;100.00;62611.44;5022669;28;20238;-76
2021/12/06 07:28:48;;;;;;;6.65;5.95;;;;;;;6.08;100.00;62625.81;5018264;28;20218;-76
2021/12/06 07:31:16;;;;;;;20.17;12.82;;;;;;;6.07;100.00;62619.75;5025486;28;20269;-76
2021/12/06 07:33:44;;;;;;;10.10;6.38;;;;;;;6.04;100.00;62619.19;5024251;28;20254;-76
2021/12/06 07:36:12;;;;;;;6.93;4.90;;;;;;;6.00;100.00;62615.56;5029021;28;20542;-76
2021/12/06 07:38:42;;;;;;;5.50;4.63;;;;;;;5.93;100.00;62605.31;5024619;28;20281;-76
2021/12/06 07:41:11;;;;;;;5.45;4.55;;;;;;;5.81;100.00;62593.97;5024236;28;20207;-77
2021/12/06 07:43:38;;;;;;;5.18;4.60;;;;;;;5.98;100.00;62610.47;5024577;28;20242;-75
2021/12/06 07:46:07;;;;;;;7.05;4.43;;;;;;;6.06;100.00;62624.28;5023505;28;20199;-75
2021/12/06 07:48:34;;;;;;;7.57;4.35;;;;;;;6.13;100.00;62628.97;5023862;28;20245;-76
2021/12/06 07:51:02;;;;;;;5.38;4.45;;;;;;;6.20;100.00;62635.66;5023804;28;20261;-75
2021/12/06 07:53:30;;;;;;;11.95;8.02;;;;;;;6.20;100.00;62636.19;5022328;28;20230;-75
2021/12/06 07:55:57;;;;;;;6.30;5.30;;;;;;;6.18;100.00;62634.13;5018245;28;20199;-76
2021/12/06 07:58:24;;;;;;;5.00;4.50;;;;;;;5.97;100.00;62609.44;5023762;28;20226;-76
2021/12/06 08:00:52;;;;;;;5.55;4.47;;;;;;;6.27;100.00;62640.34;5032685;28;20202;-76
2021/12/06 08:03:22;;;;;;;4.93;4.10;;;;;;;6.23;100.00;62641.28;5025682;28;20237;-77
2021/12/06 08:05:51;;;;;;;4.55;3.95;;;;;;;6.22;100.00;62638.25;5019580;28;20205;-75
2021/12/06 08:08:22;;;;;;;6.28;4.75;;;;;;;6.19;100.00;62637.69;5023851;28;20230;-76
2021/12/06 08:10:52;;;;;;;5.45;4.95;;;;;;;6.20;100.00;62641.22;5023625;28;20211;-75
2021/12/06 08:13:21;;;;;;;6.40;4.57;;;;;;;6.24;100.00;62644.84;5029350;28;20222;-75
2021/12/06 08:15:49;;;;;;;5.45;4.32;;;;;;;6.30;100.00;62646.47;5019470;28;20204;-76
2021/12/06 08:18:16;;;;;;;4.68;4.18;;;;;;;6.38;100.00;62654.22;5023225;28;20250;-75
2021/12/06 08:20:45;;;;;;;5.20;4.70;;;;;;;6.41;100.00;62657.31;5022186;28;20202;-75
2021/12/06 08:23:12;;;;;;;5.22;4.72;;;;;;;6.31;100.00;62644.47;5022688;28;20218;-75
2021/12/06 08:25:40;;;;;;;5.25;4.30;;;;;;;6.40;100.00;62656.28;5020835;28;20202;-74
2021/12/06 08:28:07;;;;;;;3.92;3.65;;;;;;;6.46;100.00;62662.47;5019443;28;20214;-75
2021/12/06 08:30:35;;;;;;;4.38;3.97;;;;;;;6.47;100.00;62664.00;5023322;28;20210;-74
2021/12/06 08:33:05;;;;;;;4.57;4.15;;;;;;;6.43;100.00;62657.38;5023893;28;20238;-76
2021/12/06 08:35:33;;;;;;;4.78;4.20;;;;;;;6.34;100.00;62652.63;5013759;28;20488;-75
2021/12/06 08:38:01;;;;;;;6.25;4.35;;;;;;;6.36;100.00;62652.16;5017739;28;20555;-75
2021/12/06 08:40:30;;;;;;;5.07;4.60;;;;;;;6.41;100.00;62657.84;5023581;28;20206;-76
2021/12/06 08:42:57;;;;;;;6.65;5.18;;;;;;;6.46;100.00;62662.47;5023804;28;20284;-75
2021/12/06 08:45:26;;;;;;;5.13;4.28;;;;;;;6.47;100.00;62666.53;5018363;28;20264;-77
2021/12/06 08:47:53;;;;;;;6.43;4.75;;;;;;;6.58;100.00;62674.84;5023882;28;20218;-75
2021/12/06 08:50:22;;;;;;;5.82;5.22;;;;;;;6.69;100.00;62686.72;5023593;28;20203;-76
2021/12/06 08:52:50;;;;;;;5.97;5.15;;;;;;;6.91;100.00;62708.88;5023910;28;20230;-75
2021/12/06 08:55:19;;;;;;;9.43;4.97;;;;;;;6.86;100.00;62706.78;5021480;28;20199;-75
2021/12/06 08:57:46;;;;;;;8.13;5.40;;;;;;;6.96;100.00;62711.50;5027403;28;20285;-75
2021/12/06 09:00:19;;;;;;;5.57;5.05;;;;;;;6.97;100.00;62717.59;5027303;28;20209;-76
2021/12/06 09:02:46;;;;;;;6.22;5.18;;;;;;;7.06;100.00;62719.28;5027926;28;20229;-77
2021/12/06 09:05:13;;;;;;;4.38;4.00;;;;;;;7.14;100.00;62729.56;5025796;28;20227;-75
2021/12/06 09:07:41;;;;;;;5.53;4.93;;;;;;;7.30;100.00;62746.59;5019086;28;20226;-75
2021/12/06 09:10:12;;;;;;;7.85;4.80;;;;;;;7.60;100.00;62777.53;5023576;28;20406;-75
2021/12/06 09:12:41;;;;;;;6.43;4.78;;;;;;;7.66;100.00;62788.28;5022770;28;20515;-75
2021/12/06 09:15:15;;;;;;;4.50;4.10;;;;;;;7.55;100.00;62777.47;5021332;28;20198;-75
2021/12/06 09:17:43;;;;;;;4.70;4.28;;;;;;;7.60;100.00;62782.09;5017313;28;20222;-74
2021/12/06 09:20:12;;;;;;;4.90;3.88;;;;;;;7.80;100.00;62800.72;5036149;28;20198;-74
2021/12/06 09:22:40;;;;;;;4.13;3.78;;;;;;;7.75;100.00;62797.56;5023133;28;20264;-74
2021/12/06 09:25:09;;;;;;;5.88;4.30;;;;;;;7.68;100.00;62785.81;5017343;28;20230;-74
2021/12/06 09:27:36;;;;;;;4.82;4.30;;;;;;;7.63;100.00;62785.19;5022983;28;20539;-76
2021/12/06 09:30:05;;;;;;;4.53;4.13;;;;;;;7.63;100.00;62785.72;5022734;28;20241;-75
2021/12/06 09:32:32;;;;;;;4.47;4.05;;;;;;;7.70;100.00;62798.00;5023222;28;20223;-74
2021/12/06 09:34:59;;;;;;;6.10;4.15;;;;;;;7.84;100.00;62804.84;5019014;28;20206;-76
2021/12/06 09:37:26;;;;;;;5.07;4.10;;;;;;;8.04;100.00;62822.47;5021088;28;20575;-75
2021/12/06 09:39:56;;;;;;;4.22;3.83;;;;;;;8.02;100.00;62822.94;5020387;28;20199;-74
2021/12/06 09:42:23;;;;;;;3.88;3.60;;;;;;;8.08;100.00;62827.09;5026438;28;20514;-75
2021/12/06 09:44:50;;;;;;;5.18;4.60;;;;;;;7.90;100.00;62811.03;5026299;28;20285;-75
2021/12/06 09:47:18;;;;;;;5.85;4.43;;;;;;;7.80;100.00;62797.69;5020546;28;20206;-74
2021/12/06 09:49:45;;;;;;;6.13;5.05;;;;;;;7.90;100.00;62813.56;5020407;28;20426;-75
2021/12/06 09:52:14;;;;;;;5.40;4.90;;;;;;;7.92;100.00;62812.59;5020094;28;20499;-74
2021/12/06 09:54:41;;;;;;;4.75;4.25;;;;;;;8.09;100.00;62830.16;5026087;28;20529;-74
2021/12/06 09:57:11;;;;;;;9.30;6.22;;;;;;;8.08;100.00;62834.19;5019770;28;20210;-74
2021/12/06 09:59:40;;;;;;;5.68;4.93;;;;;;;8.02;100.00;62823.44;5020661;28;20262;-74
2021/12/06 10:02:09;;;;;;;6.82;5.57;;;;;;;8.10;100.00;62834.25;5023936;28;20266;-75
2021/12/06 10:04:41;;;;;;;7.72;4.72;;;;;;;8.27;100.00;62850.78;5011802;28;20284;-74
2021/12/06 10:07:09;;;;;;;4.30;3.78;;;;;;;8.23;100.00;62846.63;5020487;28;20207;-74
2021/12/06 10:09:37;;;;;;;5.05;4.55;;;;;;;8.23;100.00;62842.09;5026068;28;20206;-75
2021/12/06 10:12:06;;;;;;;5.95;4.60;;;;;;;8.41;100.00;62862.69;5025953;28;20206;-74
2021/12/06 10:14:35;;;;;;;6.03;5.10;;;;;;;8.30;100.00;62851.84;5018266;28;20250;-74
2021/12/06 10:17:04;;;;;;;5.30;4.22;;;;;;;8.02;100.00;62817.84;5025475;28;20271;-74
2021/12/06 10:19:32;;;;;;;4.72;3.88;;;;;;;8.16;100.00;62835.34;5025827;28;20229;-75
2021/12/06 10:22:00;;;;;;;5.20;4.70;;;;;;;8.24;100.00;62845.16;5021406;28;20210;-74
2021/12/06 10:24:31;;;;;;;5.60;4.85;;;;;;;8.51;100.00;62875.59;5024650;28;20470;-74
2021/12/06 10:27:07;;;;;;;5.18;4.55;;;;;;;8.44;100.00;62868.84;5025345;28;20547;-74
2021/12/06 10:29:38;;;;;;;13.68;8.85;;;;;;;8.51;100.00;62871.00;5025544;28;20499;-74
2021/12/06 10:32:14;;;;;;;6.47;4.97;;;;;;;8.46;100.00;62865.31;5023477;28;20274;-74
2021/12/06 10:34:46;;;;;;;6.80;5.18;;;;;;;8.46;100.00;62870.41;5024951;28;20268;-74
2021/12/06 10:37:30;;;;;;;7.90;5.57;;;;;;;8.43;100.00;62865.28;5032045;28;20256;-74
2021/12/06 10:39:58;;;;;;;5.53;4.90;;;;;;;8.31;100.00;62855.44;5023389;28;20226;-74
2021/12/06 10:42:30;;;;;;;7.88;6.40;;;;;;;8.15;100.00;62836.34;5017433;28;20206;-75
2021/12/06 10:45:01;;;;;;;7.50;5.85;;;;;;;8.35;100.00;62859.03;5021039;28;20460;-74
2021/12/06 10:47:28;;;;;;;6.78;5.50;;;;;;;8.41;100.00;62867.78;5022107;28;20290;-72
2021/12/06 10:50:06;;;;;;;6.88;5.15;;;;;;;8.49;100.00;62873.50;5023642;28;20198;-73
2021/12/06 10:52:34;;;;;;;5.32;4.82;;;;;;;8.27;100.00;62848.75;5023946;28;20463;-75
2021/12/06 10:55:01;;;;;;;7.28;5.72;;;;;;;8.36;100.00;62860.06;5024446;28;20253;-75
2021/12/06 10:57:46;;;;;;;7.60;4.95;;;;;;;8.46;100.00;62870.91;5020347;28;20222;-75
2021/12/06 11:00:28;;;;;;;6.13;4.78;;;;;;;8.33;100.00;62854.44;5024633;28;20460;-74
2021/12/06 11:02:55;;;;;;;8.18;6.65;;;;;;;8.02;100.00;62825.97;5025049;28;20288;-74
2021/12/06 11:05:24;;;;;;;9.20;6.97;;;;;;;7.65;100.00;62787.78;5021416;28;20547;-74
2021/12/06 11:08:07;;;;;;;11.02;7.85;;;;;;;7.42;100.00;62761.00;5024481;28;20589;-74
2021/12/06 11:10:39;;;;;;;10.27;8.20;;;;;;;7.50;100.00;62769.75;5016847;28;20207;-74
2021/12/06 11:13:18;;;;;;;13.02;7.78;;;;;;;7.42;100.00;62761.50;5012907;28;20285;-73
2021/12/06 11:16:07;;;;;;;13.40;8.73;;;;;;;7.44;100.00;62763.56;5009960;28;20433;-74
2021/12/06 11:18:44;;;;;;;13.82;8.75;;;;;;;7.49;100.00;62768.22;5012034;28;20507;-75
2021/12/06 11:21:23;;;;;;;13.18;8.13;;;;;;;7.46;100.00;62763.09;5021948;28;20503;-74
2021/12/06 11:24:11;;;;;;;13.95;9.18;;;;;;;7.50;100.00;62772.28;5022553;28;20301;-72
2021/12/06 11:26:41;;;;;;;11.05;8.63;;;;;;;7.60;100.00;62782.09;5022167;28;20203;-73
2021/12/06 11:29:12;;;;;;;10.80;7.28;;;;;;;7.59;100.00;62778.53;5018509;28;20231;-73
2021/12/06 11:31:41;;;;;;;14.02;9.38;;;;;;;7.66;100.00;62788.28;5020221;28;20206;-74
2021/12/06 11:34:09;;;;;;;13.85;8.95;;;;;;;7.45;100.00;62764.09;5019525;28;20269;-75
2021/12/06 11:36:41;;;;;;;13.80;8.98;;;;;;;7.52;100.00;62769.28;5020770;28;20218;-74
2021/12/06 11:39:13;;;;;;;12.55;7.90;;;;;;;7.46;100.00;62762.56;5023525;28;20218;-73